Ferry Katsuragi — JI3611 — position and weather

sailwx.info

Track history (hours):
 
Tides and Currents Weather Stations Pressure Air Temp Water Temp Dewpoint Dewpoint Depression Visibility Wind Speed Wind Dir Waves Ship Positions

Ferry Katsuragi

Last reported at 2016-Jul-24 14:30 UTC. Time now 2016-Jul-24 14:45 UTC.
Position N 34°12' E 135°00'.

Length 108 m; draft 4 m.

Type: Passenger vessel. MMSI: 431301245.

Date/timePositionNaut miles runAvg speedWind from/ knotsBaromVisibWave heightAir tempDewpointWater temp
2016-Jul-24 14:30N 34°12' E 135°00'11 3.6
2016-Jul-24 11:32N 34°07' E 134°49'1414.8
2016-Jul-24 10:33N 34°12' E 135°05'3 3.1
2016-Jul-24 09:33N 34°13' E 135°09'1212.2
2016-Jul-24 08:33N 34°09' E 134°55'8 3.3
2016-Jul-24 06:08N 34°06' E 134°46'914.8
2016-Jul-24 05:31N 34°09' E 134°56'1111.5
2016-Jul-24 04:33N 34°13' E 135°09'6 5.9
2016-Jul-24 03:33N 34°11' E 135°02'5 1.4
2016-Jul-24 00:16N 34°09' E 134°57'1014.2
2016-Jul-23 23:34N 34°13' E 135°08'3 3.2
2016-Jul-23 22:33N 34°13' E 135°04'17 5.2
2016-Jul-23 19:15N 34°05' E 134°45'1013.2
2016-Jul-23 18:31N 34°09' E 134°56'1111.6
2016-Jul-23 17:33N 34°13' E 135°09'0 0.0
2016-Jul-23 16:33N 34°13' E 135°09'0 0.0
2016-Jul-23 15:33N 34°13' E 135°09'7 6.6
2016-Jul-23 14:33N 34°12' E 135°01'10 3.3
2016-Jul-23 11:29N 34°08' E 134°49'1314.5
2016-Jul-23 10:33N 34°13' E 135°05'3 3.3
2016-Jul-23 09:33N 34°13' E 135°09'0 0.0
2016-Jul-23 04:34N 34°13' E 135°09'6 5.9
2016-Jul-23 03:33N 34°11' E 135°02'4 1.2
2016-Jul-23 00:11N 34°09' E 134°58'914.9
2016-Jul-22 23:33N 34°13' E 135°08'2 1.8
2016-Jul-22 22:33N 34°13' E 135°06'18 5.5
2016-Jul-22 19:13N 34°06' E 134°45'1013.2
2016-Jul-22 18:29N 34°09' E 134°56'1111.7
2016-Jul-22 17:33N 34°13' E 135°09'0 0.0
2016-Jul-22 16:33N 34°13' E 135°09'0 0.0
2016-Jul-22 15:34N 34°13' E 135°09'7 6.7
2016-Jul-22 14:33N 34°11' E 135°01'10 3.1
2016-Jul-22 11:28N 34°08' E 134°50'1313.9
2016-Jul-22 10:33N 34°12' E 135°04'4 3.9
2016-Jul-22 09:34N 34°13' E 135°09'0 0.0
2016-Jul-22 04:33N 34°13' E 135°09'7 7.4
2016-Jul-22 03:33N 34°10' E 135°00'3 0.8
2016-Jul-22 00:13N 34°09' E 134°57'1014.6
2016-Jul-21 23:34N 34°13' E 135°08'2 2.0
2016-Jul-21 22:33N 34°13' E 135°06'18 5.5
2016-Jul-21 19:13N 34°05' E 134°45'1013.7
2016-Jul-21 18:31N 34°09' E 134°56'1111.8
2016-Jul-21 17:34N 34°13' E 135°09'0 0.0
2016-Jul-21 16:34N 34°13' E 135°09'0 0.0
2016-Jul-21 15:34N 34°13' E 135°09'7 7.2
2016-Jul-21 14:33N 34°11' E 135°00'10 3.2
2016-Jul-21 11:29N 34°08' E 134°49'1314.2
2016-Jul-21 10:33N 34°12' E 135°04'4 3.8
2016-Jul-21 09:34N 34°13' E 135°08'0 0.0
2016-Jul-21 04:33N 34°13' E 135°09'6 5.8
2016-Jul-21 03:33N 34°11' E 135°02'6 1.7
2016-Jul-21 00:17N 34°09' E 134°56'1115.2
2016-Jul-20 23:33N 34°13' E 135°08'2 1.5
2016-Jul-20 22:33N 34°13' E 135°06'21 6.4
2016-Jul-20 19:18N 34°05' E 134°43'1114.0
2016-Jul-20 18:32N 34°09' E 134°55'1212.2
2016-Jul-20 17:34N 34°13' E 135°09'0 0.0
2016-Jul-20 16:33N 34°13' E 135°09'0 0.0
2016-Jul-20 15:33N 34°13' E 135°09'5 5.4
2016-Jul-20 14:34N 34°12' E 135°02'11 3.7
2016-Jul-20 11:27N 34°08' E 134°49'1314.6
2016-Jul-20 10:33N 34°12' E 135°04'4 3.8
2016-Jul-20 09:34N 34°13' E 135°09'0 0.0
2016-Jul-20 04:34N 34°13' E 135°09'8 7.1
2016-Jul-20 03:29N 34°11' E 134°60'8 2.6
2016-Jul-20 00:32N 34°08' E 134°51'1515.5
2016-Jul-19 23:34N 34°13' E 135°08'2 1.9
2016-Jul-19 22:33N 34°13' E 135°06'18 5.1
2016-Jul-19 19:06N 34°06' E 134°46'1013.7
2016-Jul-19 18:23N 34°10' E 134°57'1012.0
2016-Jul-19 17:34N 34°13' E 135°09'0 0.0
2016-Jul-19 16:34N 34°13' E 135°09'0 0.0
2016-Jul-19 15:33N 34°13' E 135°09'7 6.5
2016-Jul-19 14:33N 34°11' E 135°01'10 3.3
2016-Jul-19 11:26N 34°08' E 134°49'1314.4
2016-Jul-19 10:33N 34°12' E 135°04'4 4.1
2016-Jul-19 09:33N 34°13' E 135°08'0 0.0
2016-Jul-19 04:33N 34°13' E 135°09'7 6.8
2016-Jul-19 03:33N 34°11' E 135°01'4 1.2
2016-Jul-19 00:15N 34°09' E 134°57'1014.3
2016-Jul-18 23:33N 34°13' E 135°08'2 2.4
2016-Jul-18 22:33N 34°13' E 135°05'8 1.9
2016-Jul-18 18:25N 34°10' E 134°57'1011.6
2016-Jul-18 17:33N 34°13' E 135°09'0 0.0
2016-Jul-18 16:33N 34°13' E 135°09'0 0.0
2016-Jul-18 15:33N 34°13' E 135°09'7 6.7
2016-Jul-18 14:33N 34°11' E 135°01'3 0.7
2016-Jul-18 10:33N 34°12' E 135°04'4 3.9
2016-Jul-18 09:33N 34°13' E 135°09'0 0.0
2016-Jul-18 04:34N 34°13' E 135°09'7 6.6
2016-Jul-18 03:32N 34°11' E 135°01'1 0.4
2016-Jul-18 00:04N 34°11' E 134°59'815.2
2016-Jul-17 23:33N 34°13' E 135°08'2 1.8
2016-Jul-17 22:34N 34°13' E 135°06'8 1.9
2016-Jul-17 18:23N 34°10' E 134°57'1012.0
2016-Jul-17 17:33N 34°13' E 135°09'0 0.0
2016-Jul-17 16:33N 34°13' E 135°09'0 0.0
2016-Jul-17 15:33N 34°13' E 135°09'8 7.4
2016-Jul-17 14:31N 34°10' E 135°00'4 0.9
2016-Jul-17 10:34N 34°12' E 135°04'4 4.2
2016-Jul-17 09:34N 34°13' E 135°09'0 0.0
2016-Jul-17 04:33N 34°13' E 135°09'7 6.8
2016-Jul-17 03:33N 34°11' E 135°01'2 0.5
2016-Jul-17 00:05N 34°11' E 134°59'815.3
2016-Jul-16 23:34N 34°13' E 135°08'1 1.5
2016-Jul-16 22:33N 34°13' E 135°06'7 1.7
2016-Jul-16 18:22N 34°11' E 134°58'911.2
2016-Jul-16 17:33N 34°13' E 135°09'0 0.0
2016-Jul-16 16:33N 34°13' E 135°09'0 0.0
2016-Jul-16 15:34N 34°13' E 135°09'7 7.0
2016-Jul-16 14:33N 34°11' E 135°00'10 3.3
2016-Jul-16 11:30N 34°08' E 134°49'1314.3
2016-Jul-16 10:33N 34°12' E 135°04'4 3.6
2016-Jul-16 09:33N 34°13' E 135°09'0 0.0
2016-Jul-16 04:33N 34°13' E 135°09'6 6.1
2016-Jul-16 03:33N 34°11' E 135°02'4 1.2
2016-Jul-16 00:15N 34°10' E 134°57'1014.9
2016-Jul-15 23:33N 34°13' E 135°09'1 1.4
2016-Jul-15 22:34N 34°13' E 135°07'19 5.5
2016-Jul-15 19:10N 34°06' E 134°46'1213.9
2016-Jul-15 18:18N 34°12' E 134°59'810.8
2016-Jul-15 17:33N 34°13' E 135°09'0 0.0
2016-Jul-15 16:34N 34°13' E 135°09'0 0.0
2016-Jul-15 15:33N 34°13' E 135°09'6 6.5
2016-Jul-15 14:34N 34°11' E 135°01'12 4.0
2016-Jul-15 11:31N 34°06' E 134°48'1414.9
2016-Jul-15 10:33N 34°12' E 135°04'4 4.2
2016-Jul-15 09:34N 34°13' E 135°09'9 2.2
2016-Jul-15 05:22N 34°11' E 134°58'911.3
2016-Jul-15 04:33N 34°13' E 135°09'7 6.9
2016-Jul-15 03:33N 34°11' E 135°01'6 2.0
2016-Jul-15 00:24N 34°07' E 134°54'1315.2
2016-Jul-14 23:33N 34°13' E 135°08'2 2.0
2016-Jul-14 22:34N 34°13' E 135°06'18 5.2
2016-Jul-14 19:08N 34°06' E 134°46'1014.0
2016-Jul-14 18:26N 34°10' E 134°57'1011.6
2016-Jul-14 17:33N 34°13' E 135°09'0 0.0
2016-Jul-14 16:34N 34°13' E 135°09'0 0.0
2016-Jul-14 15:33N 34°13' E 135°09'7 6.8
2016-Jul-14 14:34N 34°11' E 135°01'  
Track history (hours):
 
Tides and Currents Weather Stations Pressure Air Temp Water Temp Dewpoint Dewpoint Depression Visibility Wind Speed Wind Dir Waves Ship Positions

Ferry Katsuragi

Last reported at 2016-Jul-24 14:30 UTC. Time now 2016-Jul-24 14:45 UTC.
Position N 34°12' E 135°00'.

Length 108 m; draft 4 m.

Type: Passenger vessel. MMSI: 431301245.

Date/timePositionNaut miles runAvg speedWind from/ knotsBaromVisibWave heightAir tempDewpointWater temp
2016-Jul-24 14:30N 34°12' E 135°00'11 3.6
2016-Jul-24 11:32N 34°07' E 134°49'1414.8
2016-Jul-24 10:33N 34°12' E 135°05'3 3.1
2016-Jul-24 09:33N 34°13' E 135°09'1212.2
2016-Jul-24 08:33N 34°09' E 134°55'8 3.3
2016-Jul-24 06:08N 34°06' E 134°46'914.8
2016-Jul-24 05:31N 34°09' E 134°56'1111.5
2016-Jul-24 04:33N 34°13' E 135°09'6 5.9
2016-Jul-24 03:33N 34°11' E 135°02'5 1.4
2016-Jul-24 00:16N 34°09' E 134°57'1014.2
2016-Jul-23 23:34N 34°13' E 135°08'3 3.2
2016-Jul-23 22:33N 34°13' E 135°04'17 5.2
2016-Jul-23 19:15N 34°05' E 134°45'1013.2
2016-Jul-23 18:31N 34°09' E 134°56'1111.6
2016-Jul-23 17:33N 34°13' E 135°09'0 0.0
2016-Jul-23 16:33N 34°13' E 135°09'0 0.0
2016-Jul-23 15:33N 34°13' E 135°09'7 6.6
2016-Jul-23 14:33N 34°12' E 135°01'10 3.3
2016-Jul-23 11:29N 34°08' E 134°49'1314.5
2016-Jul-23 10:33N 34°13' E 135°05'3 3.3
2016-Jul-23 09:33N 34°13' E 135°09'0 0.0
2016-Jul-23 04:34N 34°13' E 135°09'6 5.9
2016-Jul-23 03:33N 34°11' E 135°02'4 1.2
2016-Jul-23 00:11N 34°09' E 134°58'914.9
2016-Jul-22 23:33N 34°13' E 135°08'2 1.8
2016-Jul-22 22:33N 34°13' E 135°06'18 5.5
2016-Jul-22 19:13N 34°06' E 134°45'1013.2
2016-Jul-22 18:29N 34°09' E 134°56'1111.7
2016-Jul-22 17:33N 34°13' E 135°09'0 0.0
2016-Jul-22 16:33N 34°13' E 135°09'0 0.0
2016-Jul-22 15:34N 34°13' E 135°09'7 6.7
2016-Jul-22 14:33N 34°11' E 135°01'10 3.1
2016-Jul-22 11:28N 34°08' E 134°50'1313.9
2016-Jul-22 10:33N 34°12' E 135°04'4 3.9
2016-Jul-22 09:34N 34°13' E 135°09'0 0.0
2016-Jul-22 04:33N 34°13' E 135°09'7 7.4
2016-Jul-22 03:33N 34°10' E 135°00'3 0.8
2016-Jul-22 00:13N 34°09' E 134°57'1014.6
2016-Jul-21 23:34N 34°13' E 135°08'2 2.0
2016-Jul-21 22:33N 34°13' E 135°06'18 5.5
2016-Jul-21 19:13N 34°05' E 134°45'1013.7
2016-Jul-21 18:31N 34°09' E 134°56'1111.8
2016-Jul-21 17:34N 34°13' E 135°09'0 0.0
2016-Jul-21 16:34N 34°13' E 135°09'0 0.0
2016-Jul-21 15:34N 34°13' E 135°09'7 7.2
2016-Jul-21 14:33N 34°11' E 135°00'10 3.2
2016-Jul-21 11:29N 34°08' E 134°49'1314.2
2016-Jul-21 10:33N 34°12' E 135°04'4 3.8
2016-Jul-21 09:34N 34°13' E 135°08'0 0.0
2016-Jul-21 04:33N 34°13' E 135°09'6 5.8
2016-Jul-21 03:33N 34°11' E 135°02'6 1.7
2016-Jul-21 00:17N 34°09' E 134°56'1115.2
2016-Jul-20 23:33N 34°13' E 135°08'2 1.5
2016-Jul-20 22:33N 34°13' E 135°06'21 6.4
2016-Jul-20 19:18N 34°05' E 134°43'1114.0
2016-Jul-20 18:32N 34°09' E 134°55'1212.2
2016-Jul-20 17:34N 34°13' E 135°09'0 0.0
2016-Jul-20 16:33N 34°13' E 135°09'0 0.0
2016-Jul-20 15:33N 34°13' E 135°09'5 5.4
2016-Jul-20 14:34N 34°12' E 135°02'11 3.7
2016-Jul-20 11:27N 34°08' E 134°49'1314.6
2016-Jul-20 10:33N 34°12' E 135°04'4 3.8
2016-Jul-20 09:34N 34°13' E 135°09'0 0.0
2016-Jul-20 04:34N 34°13' E 135°09'8 7.1
2016-Jul-20 03:29N 34°11' E 134°60'8 2.6
2016-Jul-20 00:32N 34°08' E 134°51'1515.5
2016-Jul-19 23:34N 34°13' E 135°08'2 1.9
2016-Jul-19 22:33N 34°13' E 135°06'18 5.1
2016-Jul-19 19:06N 34°06' E 134°46'1013.7
2016-Jul-19 18:23N 34°10' E 134°57'1012.0
2016-Jul-19 17:34N 34°13' E 135°09'0 0.0
2016-Jul-19 16:34N 34°13' E 135°09'0 0.0
2016-Jul-19 15:33N 34°13' E 135°09'7 6.5
2016-Jul-19 14:33N 34°11' E 135°01'10 3.3
2016-Jul-19 11:26N 34°08' E 134°49'1314.4
2016-Jul-19 10:33N 34°12' E 135°04'4 4.1
2016-Jul-19 09:33N 34°13' E 135°08'0 0.0
2016-Jul-19 04:33N 34°13' E 135°09'7 6.8
2016-Jul-19 03:33N 34°11' E 135°01'4 1.2
2016-Jul-19 00:15N 34°09' E 134°57'1014.3
2016-Jul-18 23:33N 34°13' E 135°08'2 2.4
2016-Jul-18 22:33N 34°13' E 135°05'8 1.9
2016-Jul-18 18:25N 34°10' E 134°57'1011.6
2016-Jul-18 17:33N 34°13' E 135°09'0 0.0
2016-Jul-18 16:33N 34°13' E 135°09'0 0.0
2016-Jul-18 15:33N 34°13' E 135°09'7 6.7
2016-Jul-18 14:33N 34°11' E 135°01'3 0.7
2016-Jul-18 10:33N 34°12' E 135°04'4 3.9
2016-Jul-18 09:33N 34°13' E 135°09'0 0.0
2016-Jul-18 04:34N 34°13' E 135°09'7 6.6
2016-Jul-18 03:32N 34°11' E 135°01'1 0.4
2016-Jul-18 00:04N 34°11' E 134°59'815.2
2016-Jul-17 23:33N 34°13' E 135°08'2 1.8
2016-Jul-17 22:34N 34°13' E 135°06'8 1.9
2016-Jul-17 18:23N 34°10' E 134°57'1012.0
2016-Jul-17 17:33N 34°13' E 135°09'0 0.0
2016-Jul-17 16:33N 34°13' E 135°09'0 0.0
2016-Jul-17 15:33N 34°13' E 135°09'8 7.4
2016-Jul-17 14:31N 34°10' E 135°00'4 0.9
2016-Jul-17 10:34N 34°12' E 135°04'4 4.2
2016-Jul-17 09:34N 34°13' E 135°09'0 0.0
2016-Jul-17 04:33N 34°13' E 135°09'7 6.8
2016-Jul-17 03:33N 34°11' E 135°01'2 0.5
2016-Jul-17 00:05N 34°11' E 134°59'815.3
2016-Jul-16 23:34N 34°13' E 135°08'1 1.5
2016-Jul-16 22:33N 34°13' E 135°06'7 1.7
2016-Jul-16 18:22N 34°11' E 134°58'911.2
2016-Jul-16 17:33N 34°13' E 135°09'0 0.0
2016-Jul-16 16:33N 34°13' E 135°09'0 0.0
2016-Jul-16 15:34N 34°13' E 135°09'7 7.0
2016-Jul-16 14:33N 34°11' E 135°00'10 3.3
2016-Jul-16 11:30N 34°08' E 134°49'1314.3
2016-Jul-16 10:33N 34°12' E 135°04'4 3.6
2016-Jul-16 09:33N 34°13' E 135°09'0 0.0
2016-Jul-16 04:33N 34°13' E 135°09'6 6.1
2016-Jul-16 03:33N 34°11' E 135°02'4 1.2
2016-Jul-16 00:15N 34°10' E 134°57'1014.9
2016-Jul-15 23:33N 34°13' E 135°09'1 1.4
2016-Jul-15 22:34N 34°13' E 135°07'19 5.5
2016-Jul-15 19:10N 34°06' E 134°46'1213.9
2016-Jul-15 18:18N 34°12' E 134°59'810.8
2016-Jul-15 17:33N 34°13' E 135°09'0 0.0
2016-Jul-15 16:34N 34°13' E 135°09'0 0.0
2016-Jul-15 15:33N 34°13' E 135°09'6 6.5
2016-Jul-15 14:34N 34°11' E 135°01'12 4.0
2016-Jul-15 11:31N 34°06' E 134°48'1414.9
2016-Jul-15 10:33N 34°12' E 135°04'4 4.2
2016-Jul-15 09:34N 34°13' E 135°09'9 2.2
2016-Jul-15 05:22N 34°11' E 134°58'911.3
2016-Jul-15 04:33N 34°13' E 135°09'7 6.9
2016-Jul-15 03:33N 34°11' E 135°01'6 2.0
2016-Jul-15 00:24N 34°07' E 134°54'1315.2
2016-Jul-14 23:33N 34°13' E 135°08'2 2.0
2016-Jul-14 22:34N 34°13' E 135°06'18 5.2
2016-Jul-14 19:08N 34°06' E 134°46'1014.0
2016-Jul-14 18:26N 34°10' E 134°57'1011.6
2016-Jul-14 17:33N 34°13' E 135°09'0 0.0
2016-Jul-14 16:34N 34°13' E 135°09'0 0.0
2016-Jul-14 15:33N 34°13' E 135°09'7 6.8
2016-Jul-14 14:34N 34°11' E 135°01'  

Dump ship's entire track history